Regional Weather

 

KMKL - Jackson, TN, USA
Distance from station: WNW 50mi, 81km
Updated: Sat, Sep-26-2020 7:53pm CDT
Mostly cloudy
Mostly cloudy
 Wind from S
Wind: S 3 mph , 6 km/h
Temperature: 68°F , 20°C
Dew Point: 64°F , 18°C
Humidity: 88%
Barometer: 29.94 inHg , 1013.9 hPa
Clouds: Mostly cloudy
Visibility: 10 miles , 16 km
Cloud details: Mostly cloudy 3600 ft
2020/09/27 00:53 KMKL 270053Z AUTO 18003KT 10SM BKN036 20/18 A2994 RMK AO2 SLP135 T02000178
KMEM - Memphis, TN, USA
Distance from station: W 108mi, 173km
Updated: Sat, Sep-26-2020 7:54pm CDT
Mostly cloudy
Mostly cloudy
 Wind from S
Wind: S 5 mph , 7 km/h
Temperature: 70°F , 21°C
Dew Point: 63°F , 17°C
Humidity: 78%
Barometer: 29.93 inHg , 1013.5 hPa
Clouds: Mostly cloudy
Visibility: 10 miles , 16 km
Cloud details: Mostly cloudy 3900 ft
Mostly cloudy 4500 ft
2020/09/27 00:54 KMEM 270054Z 18004KT 10SM BKN039 BKN045 21/17 A2993 RMK AO2 SLP132 T02060172
 
KBNA - Nashville, TN, USA
Distance from station: NE 97mi, 157km
Updated: Sat, Sep-26-2020 7:53pm CDT
Clear
Clear
 Wind from WSW
Wind: WSW 3 mph , 6 km/h
Temperature: 72°F , 22°C
Dew Point: 63°F , 17°C
Humidity: 73%
Barometer: 29.97 inHg , 1014.9 hPa
Clouds: Clear
Visibility: 10 miles , 16 km
2020/09/27 00:53 KBNA 270053Z 24003KT 10SM CLR 22/17 A2997 RMK AO2 SLP142 T02170167
KCKV - Clarksville, TN, USA
Distance from station: NNE 99mi, 159km
Updated: Sat, Sep-26-2020 7:52pm CDT
Overcast
Overcast
 Wind from SW
Wind: SW 3 mph , 6 km/h
Temperature: 70°F , 21°C
Dew Point: 63°F , 17°C
Humidity: 78%
Barometer: 29.95 inHg , 1014.2 hPa
Clouds: Overcast
Visibility: 10 miles , 16 km
Cloud details: Overcast 3600 ft
2020/09/27 00:52 KCKV 270052Z AUTO 22003KT 10SM OVC036 21/17 A2995 RMK AO2 SLP137 T02110172
 
KPAH - Paducah, KY, USA
Distance from station: NNW 128mi, 205km
Updated: Sat, Sep-26-2020 7:53pm CDT
Mostly cloudy
Mostly cloudy
 Wind from calm
Wind: Calm
Temperature: 68°F , 20°C
Dew Point: 61°F , 16°C
Humidity: 78%
Barometer: 29.90 inHg , 1012.5 hPa
Clouds: Mostly cloudy
Visibility: 10 miles , 16 km
Cloud details: Mostly cloudy 3200 ft
2020/09/27 00:53 KPAH 270053Z 00000KT 10SM BKN032 20/16 A2990 RMK AO2 SLP123 T02000161
KCHA - Chattanooga, TN, USA
Distance from station: E 165mi, 265km
Updated: Sat, Sep-26-2020 7:53pm CDT
Partly cloudy
Partly cloudy
 Wind from S
Wind: S 5 mph , 7 km/h
Temperature: 73°F , 23°C
Dew Point: 64°F , 18°C
Humidity: 74%
Barometer: 29.99 inHg , 1015.6 hPa
Clouds: Partly cloudy
Visibility: 10 miles , 16 km
Cloud details: Few Clouds 3900 ft
Partly cloudy 5500 ft
Partly cloudy 25000 ft
2020/09/27 00:53 KCHA 270053Z 18004KT 10SM FEW039 SCT055 SCT250 23/18 A2999 RMK AO2 SLP150 T02280178
 
KTYS - Knoxville, TN, USA
Distance from station: E 234mi, 377km
Updated: Sat, Sep-26-2020 7:53pm CDT
Few Clouds
Few Clouds
 Wind from calm
Wind: Calm
Temperature: 66°F , 19°C
Dew Point: 64°F , 18°C
Humidity: 94%
Barometer: 29.99 inHg , 1015.6 hPa
Clouds: Few Clouds
Visibility: 10 miles , 16 km
Cloud details: Few Clouds 5000 ft
2020/09/27 00:53 KTYS 270053Z 00000KT 10SM FEW050 19/18 A2999 RMK AO2 SLP147 T01940183
KLIT - Little Rock, AR, USA
Distance from station: W 240mi, 386km
Updated: Sat, Sep-26-2020 7:53pm CDT
Few Clouds
Few Clouds
 Wind from S
Wind: S 5 mph , 7 km/h
Temperature: 64°F , 18°C
Dew Point: 61°F , 16°C
Humidity: 88%
Barometer: 29.90 inHg , 1012.5 hPa
Clouds: Few Clouds
Visibility: 10 miles , 16 km
Cloud details: Few Clouds 3200 ft
2020/09/27 00:53 KLIT 270053Z 17004KT 10SM FEW032 18/16 A2990 RMK AO2 SLP127 T01830161

Refresh Page for latest data.